createdAt,value
2022-12-15T09:38:50.190Z,7.15
2022-12-15T09:48:00.969Z,9.50
2022-12-15T09:50:35.709Z,11.20
2022-12-15T09:53:03.467Z,8.57
2022-12-15T09:55:32.692Z,8.07
2022-12-15T09:58:30.405Z,9.68
2022-12-15T10:01:22.047Z,8.70
2022-12-15T10:04:20.800Z,8.10
2022-12-15T10:06:57.653Z,8.80
2022-12-15T10:09:30.520Z,9.18
2022-12-15T10:12:06.700Z,9.50
2022-12-15T10:15:18.313Z,10.13
2022-12-15T10:20:40.760Z,9.90
2022-12-15T10:23:16.656Z,9.93
2022-12-15T10:26:20.722Z,8.55
2022-12-15T10:29:06.570Z,9.57
2022-12-15T10:31:41.963Z,9.00
2022-12-15T10:34:18.347Z,8.43
2022-12-15T10:36:51.140Z,9.38
2022-12-15T10:39:17.902Z,10.57
2022-12-15T10:41:44.398Z,9.45
2022-12-15T10:44:32.073Z,9.40
2022-12-15T10:46:59.269Z,9.98
2022-12-15T10:49:25.717Z,9.65
2022-12-15T10:51:52.088Z,8.73
2022-12-15T10:54:18.862Z,9.50
2022-12-15T10:56:50.123Z,8.57
2022-12-15T10:59:22.862Z,9.38
2022-12-15T11:01:50.907Z,9.27
2022-12-15T11:04:33.754Z,8.93
2022-12-15T11:07:02.924Z,8.68
2022-12-15T11:09:34.312Z,8.90
2022-12-15T11:12:20.446Z,8.50
2022-12-15T11:14:49.727Z,8.63
2022-12-15T11:17:20.818Z,9.13
2022-12-15T11:20:02.722Z,8.98
2022-12-15T11:22:45.885Z,8.17
2022-12-15T11:25:36.770Z,8.70
2022-12-15T11:28:11.272Z,8.32
2022-12-15T11:30:46.099Z,8.70
2022-12-15T11:33:12.866Z,9.73
2022-12-15T11:36:09.875Z,9.40
2022-12-15T11:38:47.374Z,8.85
2022-12-15T11:41:33.937Z,9.43
2022-12-15T11:44:23.936Z,8.90
2022-12-15T11:47:20.574Z,9.75
2022-12-15T11:50:07.643Z,8.90
2022-12-15T11:52:49.027Z,9.63
2022-12-15T11:55:18.498Z,9.70
2022-12-15T11:58:01.061Z,9.57
2022-12-15T12:00:34.935Z,9.27
2022-12-15T12:03:11.521Z,9.93
2022-12-15T12:06:25.918Z,9.52
2022-12-15T12:09:16.973Z,8.40
2022-12-15T12:12:11.974Z,9.30
2022-12-15T12:14:51.149Z,8.80
2022-12-15T12:17:42.417Z,9.97
2022-12-15T12:20:18.519Z,9.18
2022-12-15T12:23:05.047Z,9.35
2022-12-15T12:25:39.973Z,9.05
2022-12-15T12:29:01.821Z,8.93
2022-12-15T12:31:51.599Z,8.40
2022-12-15T12:34:26.880Z,8.93
2022-12-15T12:36:55.082Z,8.90
2022-12-15T12:39:25.458Z,10.27
2022-12-15T12:42:07.508Z,9.55
2022-12-15T12:44:37.629Z,9.63
2022-12-15T12:47:11.746Z,10.88
2022-12-15T12:49:45.303Z,9.18
2022-12-15T12:52:31.305Z,9.93
2022-12-15T12:55:21.166Z,10.85
2022-12-15T12:57:47.742Z,10.20
2022-12-15T13:00:36.305Z,10.73
2022-12-15T13:03:12.381Z,10.43
2022-12-15T13:05:42.381Z,11.18
2022-12-15T13:08:08.809Z,10.32
2022-12-15T13:10:37.881Z,11.00
2022-12-15T13:13:29.671Z,11.52
2022-12-15T13:16:27.820Z,11.75
2022-12-15T13:19:03.536Z,11.15
2022-12-15T13:21:42.564Z,11.95
2022-12-15T13:24:34.337Z,11.20
2022-12-15T13:27:19.879Z,10.57
2022-12-15T13:30:00.158Z,11.13
2022-12-15T13:32:26.655Z,11.13
2022-12-15T13:34:56.666Z,11.40
2022-12-15T13:37:51.430Z,12.80
2022-12-15T13:40:35.185Z,11.32
2022-12-15T13:43:04.916Z,11.95
2022-12-15T13:45:37.545Z,12.80
2022-12-15T13:48:35.410Z,12.05
2022-12-15T13:51:25.565Z,11.93
2022-12-15T13:54:16.763Z,11.23
2022-12-15T13:57:04.302Z,10.90
2022-12-15T13:59:41.985Z,11.27
2022-12-15T14:02:36.135Z,11.85
2022-12-15T14:05:20.025Z,12.37
2022-12-15T14:07:56.551Z,12.38
2022-12-15T14:10:45.170Z,12.68
2022-12-15T14:13:25.030Z,11.65
2022-12-15T14:16:07.321Z,11.23
2022-12-15T14:18:42.100Z,11.07
2022-12-15T14:21:30.323Z,13.23
2022-12-15T14:24:36.550Z,13.55
2022-12-15T14:26:44.429Z,12.65
2022-12-15T14:35:40.684Z,12.02
2022-12-15T14:41:40.729Z,12.52
2022-12-15T14:44:38.284Z,12.75
2022-12-15T14:47:12.448Z,12.03
2022-12-15T14:49:42.818Z,11.65
2022-12-15T14:52:26.703Z,12.10
2022-12-15T14:54:59.160Z,12.20
2022-12-15T14:57:40.852Z,12.73
2022-12-15T15:00:49.286Z,13.00
2022-12-15T15:06:01.038Z,13.00
2022-12-15T15:08:29.642Z,12.82
2022-12-15T15:11:00.418Z,13.98
2022-12-15T15:13:40.219Z,13.03
2022-12-15T15:16:14.448Z,12.15
2022-12-15T15:18:42.608Z,12.07
2022-12-15T15:21:17.400Z,12.93
2022-12-15T15:24:25.517Z,12.90
2022-12-15T15:26:53.303Z,13.23
2022-12-15T15:30:09.419Z,12.60
2022-12-15T15:32:59.017Z,12.80
2022-12-15T15:35:31.842Z,12.90
2022-12-15T15:38:04.955Z,12.77
2022-12-15T15:40:33.897Z,12.10
2022-12-15T15:43:00.540Z,13.23
2022-12-15T15:45:27.782Z,13.55
2022-12-15T15:47:56.299Z,12.63
2022-12-15T15:50:28.959Z,12.68
2022-12-15T15:52:56.938Z,12.67
2022-12-15T15:55:29.961Z,13.48
2022-12-15T15:57:57.798Z,14.45
2022-12-15T16:00:25.586Z,13.70
2022-12-15T16:02:52.414Z,13.77
2022-12-15T16:05:20.910Z,14.10
2022-12-15T16:07:47.636Z,13.70
2022-12-15T16:10:17.023Z,15.60
2022-12-15T16:12:53.208Z,14.73
2022-12-15T16:15:23.240Z,15.57
2022-12-15T16:17:50.019Z,15.43
2022-12-15T16:20:19.176Z,14.70
2022-12-15T16:22:49.970Z,14.80
2022-12-15T16:25:48.419Z,16.27
2022-12-15T16:28:25.053Z,14.65
2022-12-15T16:30:52.249Z,15.40
2022-12-15T16:33:19.826Z,15.23
2022-12-15T16:35:48.242Z,14.75
2022-12-15T16:38:19.488Z,15.27
2022-12-15T16:40:46.152Z,15.80
2022-12-15T16:43:21.836Z,14.57
2022-12-15T16:45:53.774Z,15.52
2022-12-15T16:48:20.882Z,17.38
2022-12-15T16:50:56.199Z,16.38
2022-12-15T16:53:29.624Z,15.05
2022-12-15T16:55:59.658Z,16.07
2022-12-15T16:58:27.825Z,16.25
2022-12-15T17:00:54.942Z,16.20
2022-12-15T17:03:25.654Z,17.55
2022-12-15T17:05:55.607Z,15.57
2022-12-15T17:08:40.111Z,14.93
2022-12-15T17:11:11.829Z,21.13
2022-12-15T17:13:45.851Z,16.05
2022-12-15T17:16:15.827Z,16.52
2022-12-15T17:18:42.857Z,15.13
2022-12-15T17:21:16.752Z,15.93
2022-12-15T17:23:45.898Z,16.25
2022-12-15T17:26:29.528Z,16.58
2022-12-15T17:29:06.090Z,15.50
2022-12-15T17:31:35.652Z,14.70
2022-12-15T17:34:27.222Z,14.67
2022-12-15T17:36:54.522Z,14.73
2022-12-15T17:39:22.294Z,14.73
2022-12-15T17:41:59.863Z,14.93
2022-12-15T17:44:35.111Z,14.77
2022-12-15T17:47:07.057Z,15.80
2022-12-15T17:49:38.977Z,15.32
2022-12-15T17:52:28.480Z,15.75
2022-12-15T17:54:55.758Z,15.43
2022-12-15T17:57:22.521Z,16.67
2022-12-15T17:59:49.015Z,17.50
2022-12-15T18:02:15.914Z,16.38
2022-12-15T18:04:43.685Z,15.18
2022-12-15T18:07:28.208Z,16.48
2022-12-15T18:09:55.041Z,15.45
2022-12-15T18:12:26.411Z,17.13
2022-12-15T18:14:55.739Z,14.90
2022-12-15T18:17:23.710Z,15.10
2022-12-15T18:19:50.100Z,14.70
2022-12-15T18:22:23.696Z,16.73
2022-12-15T18:24:52.850Z,15.30
2022-12-15T18:27:28.287Z,15.38
2022-12-15T18:29:56.433Z,15.70
2022-12-15T18:32:27.189Z,14.63
2022-12-15T18:34:54.872Z,15.65
2022-12-15T18:37:24.625Z,14.83
2022-12-15T18:39:51.171Z,15.32
2022-12-15T18:42:20.330Z,15.82
2022-12-15T18:44:49.281Z,15.45
2022-12-15T18:47:21.090Z,15.48
2022-12-15T18:49:47.705Z,15.90
2022-12-15T18:52:23.297Z,15.55
2022-12-15T18:54:51.144Z,15.32
2022-12-15T18:57:36.066Z,13.93
2022-12-15T19:00:13.907Z,15.50
2022-12-15T19:02:41.515Z,16.37
2022-12-15T19:05:27.374Z,14.82
2022-12-15T19:07:57.565Z,14.63
2022-12-15T19:10:26.627Z,16.13
2022-12-15T19:12:58.371Z,15.77
2022-12-15T19:15:25.968Z,15.57
2022-12-15T19:18:12.488Z,16.35
2022-12-15T19:20:57.834Z,17.23
2022-12-15T19:23:26.405Z,16.52
2022-12-15T19:25:53.647Z,16.77
2022-12-15T19:31:03.316Z,14.52
2022-12-15T19:33:30.585Z,15.90
2022-12-15T19:35:57.502Z,14.82
2022-12-15T19:38:32.263Z,14.93
2022-12-15T19:40:59.684Z,14.40
2022-12-15T19:43:26.914Z,15.38
2022-12-15T19:45:56.345Z,15.20
2022-12-15T19:48:24.055Z,13.80
2022-12-15T19:50:52.171Z,14.50
2022-12-15T19:53:26.055Z,15.53
2022-12-15T19:55:55.548Z,14.25
2022-12-15T19:58:33.709Z,15.80
2022-12-15T20:01:04.209Z,15.45
2022-12-15T20:03:31.829Z,13.95
2022-12-15T20:06:01.063Z,15.53
2022-12-15T20:08:32.967Z,14.85
2022-12-15T20:11:01.066Z,15.77
2022-12-15T20:13:27.811Z,15.75
2022-12-15T20:15:54.626Z,16.58
2022-12-15T20:18:21.145Z,15.93
2022-12-15T20:20:49.137Z,17.30
2022-12-15T20:23:19.682Z,16.58
2022-12-15T20:25:47.244Z,17.27
